sensor_id;sensor_type;location;lat;lon;timestamp;P1;durP1;ratioP1;P2;durP2;ratioP2
11911;SDS011;6016;41.928;25.556;2023-04-15T00:00:48;6.75;;;3.15;;
11911;SDS011;6016;41.928;25.556;2023-04-15T00:03:15;5.57;;;3.00;;
11911;SDS011;6016;41.928;25.556;2023-04-15T00:05:44;7.25;;;3.80;;
11911;SDS011;6016;41.928;25.556;2023-04-15T00:08:11;7.40;;;3.92;;
11911;SDS011;6016;41.928;25.556;2023-04-15T00:10:38;10.68;;;4.50;;
11911;SDS011;6016;41.928;25.556;2023-04-15T00:13:04;11.38;;;4.20;;
11911;SDS011;6016;41.928;25.556;2023-04-15T00:15:31;9.32;;;3.67;;
11911;SDS011;6016;41.928;25.556;2023-04-15T00:17:58;14.18;;;5.95;;
11911;SDS011;6016;41.928;25.556;2023-04-15T00:20:25;12.43;;;4.68;;
11911;SDS011;6016;41.928;25.556;2023-04-15T00:22:53;12.35;;;4.97;;
11911;SDS011;6016;41.928;25.556;2023-04-15T00:25:20;12.00;;;4.07;;
11911;SDS011;6016;41.928;25.556;2023-04-15T00:27:47;8.35;;;3.80;;
11911;SDS011;6016;41.928;25.556;2023-04-15T00:30:14;8.27;;;3.55;;
11911;SDS011;6016;41.928;25.556;2023-04-15T00:32:41;7.75;;;3.90;;
11911;SDS011;6016;41.928;25.556;2023-04-15T00:35:07;10.73;;;4.05;;
11911;SDS011;6016;41.928;25.556;2023-04-15T00:37:35;9.63;;;3.97;;
11911;SDS011;6016;41.928;25.556;2023-04-15T00:40:03;9.70;;;4.45;;
11911;SDS011;6016;41.928;25.556;2023-04-15T00:42:33;9.23;;;4.10;;
11911;SDS011;6016;41.928;25.556;2023-04-15T00:45:00;7.57;;;4.18;;
11911;SDS011;6016;41.928;25.556;2023-04-15T00:47:27;8.57;;;4.20;;
11911;SDS011;6016;41.928;25.556;2023-04-15T00:49:55;8.95;;;4.00;;
11911;SDS011;6016;41.928;25.556;2023-04-15T00:52:22;9.95;;;3.90;;
11911;SDS011;6016;41.928;25.556;2023-04-15T00:54:49;9.48;;;3.78;;
11911;SDS011;6016;41.928;25.556;2023-04-15T00:57:19;9.45;;;4.07;;
11911;SDS011;6016;41.928;25.556;2023-04-15T00:59:46;10.05;;;4.13;;
11911;SDS011;6016;41.928;25.556;2023-04-15T01:02:14;11.57;;;3.70;;
11911;SDS011;6016;41.928;25.556;2023-04-15T01:04:40;10.85;;;4.30;;
11911;SDS011;6016;41.928;25.556;2023-04-15T01:07:07;9.00;;;3.35;;
11911;SDS011;6016;41.928;25.556;2023-04-15T01:09:34;14.18;;;3.58;;
11911;SDS011;6016;41.928;25.556;2023-04-15T01:12:01;9.85;;;3.58;;
11911;SDS011;6016;41.928;25.556;2023-04-15T01:14:29;6.63;;;3.22;;
11911;SDS011;6016;41.928;25.556;2023-04-15T01:16:57;9.38;;;3.75;;
11911;SDS011;6016;41.928;25.556;2023-04-15T01:19:24;10.27;;;3.25;;
11911;SDS011;6016;41.928;25.556;2023-04-15T01:21:51;6.45;;;3.03;;
11911;SDS011;6016;41.928;25.556;2023-04-15T01:24:18;9.77;;;3.30;;
11911;SDS011;6016;41.928;25.556;2023-04-15T01:26:46;7.97;;;2.83;;
11911;SDS011;6016;41.928;25.556;2023-04-15T01:29:14;4.15;;;2.70;;
11911;SDS011;6016;41.928;25.556;2023-04-15T01:31:47;6.13;;;2.88;;
11911;SDS011;6016;41.928;25.556;2023-04-15T01:34:16;7.45;;;2.92;;
11911;SDS011;6016;41.928;25.556;2023-04-15T01:36:42;6.68;;;2.78;;
11911;SDS011;6016;41.928;25.556;2023-04-15T01:39:10;6.22;;;2.70;;
11911;SDS011;6016;41.928;25.556;2023-04-15T01:41:36;6.47;;;3.20;;
11911;SDS011;6016;41.928;25.556;2023-04-15T01:44:05;6.47;;;2.97;;
11911;SDS011;6016;41.928;25.556;2023-04-15T01:46:32;8.80;;;3.13;;
11911;SDS011;6016;41.928;25.556;2023-04-15T01:48:59;4.88;;;2.75;;
11911;SDS011;6016;41.928;25.556;2023-04-15T01:51:26;7.45;;;3.45;;
11911;SDS011;6016;41.928;25.556;2023-04-15T01:53:53;7.93;;;3.70;;
11911;SDS011;6016;41.928;25.556;2023-04-15T01:56:21;6.95;;;3.17;;
11911;SDS011;6016;41.928;25.556;2023-04-15T01:58:48;8.05;;;3.40;;
11911;SDS011;6016;41.928;25.556;2023-04-15T02:01:16;11.65;;;3.60;;
11911;SDS011;6016;41.928;25.556;2023-04-15T02:03:45;7.40;;;3.10;;
11911;SDS011;6016;41.928;25.556;2023-04-15T02:06:12;6.72;;;3.40;;
11911;SDS011;6016;41.928;25.556;2023-04-15T02:08:38;9.32;;;4.00;;
11911;SDS011;6016;41.928;25.556;2023-04-15T02:11:05;7.30;;;3.60;;
11911;SDS011;6016;41.928;25.556;2023-04-15T02:13:32;17.55;;;6.22;;
11911;SDS011;6016;41.928;25.556;2023-04-15T02:15:59;13.38;;;5.32;;
11911;SDS011;6016;41.928;25.556;2023-04-15T02:18:27;7.82;;;4.15;;
11911;SDS011;6016;41.928;25.556;2023-04-15T02:20:54;10.70;;;4.15;;
11911;SDS011;6016;41.928;25.556;2023-04-15T02:23:22;8.05;;;4.63;;
11911;SDS011;6016;41.928;25.556;2023-04-15T02:25:49;10.23;;;4.57;;
11911;SDS011;6016;41.928;25.556;2023-04-15T02:28:16;13.13;;;4.60;;
11911;SDS011;6016;41.928;25.556;2023-04-15T02:30:43;10.48;;;4.32;;
11911;SDS011;6016;41.928;25.556;2023-04-15T02:33:13;12.75;;;5.15;;
11911;SDS011;6016;41.928;25.556;2023-04-15T02:35:41;12.27;;;4.38;;
11911;SDS011;6016;41.928;25.556;2023-04-15T02:38:09;12.25;;;4.70;;
11911;SDS011;6016;41.928;25.556;2023-04-15T02:40:36;12.20;;;5.00;;
11911;SDS011;6016;41.928;25.556;2023-04-15T02:43:03;10.02;;;5.13;;
11911;SDS011;6016;41.928;25.556;2023-04-15T02:45:31;12.40;;;5.95;;
11911;SDS011;6016;41.928;25.556;2023-04-15T02:47:57;10.48;;;5.03;;
11911;SDS011;6016;41.928;25.556;2023-04-15T02:50:27;11.85;;;5.78;;
11911;SDS011;6016;41.928;25.556;2023-04-15T02:52:57;11.27;;;4.78;;
11911;SDS011;6016;41.928;25.556;2023-04-15T02:55:25;11.45;;;5.00;;
11911;SDS011;6016;41.928;25.556;2023-04-15T02:57:52;16.10;;;4.78;;
11911;SDS011;6016;41.928;25.556;2023-04-15T03:00:18;10.02;;;4.47;;
11911;SDS011;6016;41.928;25.556;2023-04-15T03:02:45;12.45;;;4.72;;
11911;SDS011;6016;41.928;25.556;2023-04-15T03:05:16;9.40;;;4.65;;
11911;SDS011;6016;41.928;25.556;2023-04-15T03:07:43;9.73;;;3.92;;
11911;SDS011;6016;41.928;25.556;2023-04-15T03:10:11;10.68;;;4.68;;
11911;SDS011;6016;41.928;25.556;2023-04-15T03:12:38;10.02;;;4.38;;
11911;SDS011;6016;41.928;25.556;2023-04-15T03:15:05;10.20;;;4.63;;
11911;SDS011;6016;41.928;25.556;2023-04-15T03:17:32;8.73;;;3.75;;
11911;SDS011;6016;41.928;25.556;2023-04-15T03:20:00;9.95;;;4.40;;
11911;SDS011;6016;41.928;25.556;2023-04-15T03:22:28;10.85;;;4.55;;
11911;SDS011;6016;41.928;25.556;2023-04-15T03:24:54;11.52;;;4.50;;
11911;SDS011;6016;41.928;25.556;2023-04-15T03:27:23;11.68;;;4.68;;
11911;SDS011;6016;41.928;25.556;2023-04-15T03:29:49;9.32;;;4.00;;
11911;SDS011;6016;41.928;25.556;2023-04-15T03:32:16;10.25;;;4.70;;
11911;SDS011;6016;41.928;25.556;2023-04-15T03:34:43;11.85;;;5.05;;
11911;SDS011;6016;41.928;25.556;2023-04-15T03:37:10;8.68;;;4.20;;
11911;SDS011;6016;41.928;25.556;2023-04-15T03:39:37;11.15;;;4.20;;
11911;SDS011;6016;41.928;25.556;2023-04-15T03:42:04;8.68;;;3.85;;
11911;SDS011;6016;41.928;25.556;2023-04-15T03:44:32;9.90;;;4.38;;
11911;SDS011;6016;41.928;25.556;2023-04-15T03:46:59;9.40;;;4.70;;
11911;SDS011;6016;41.928;25.556;2023-04-15T03:49:25;11.82;;;4.60;;
11911;SDS011;6016;41.928;25.556;2023-04-15T03:51:52;9.90;;;4.45;;
11911;SDS011;6016;41.928;25.556;2023-04-15T03:54:19;10.20;;;4.88;;
11911;SDS011;6016;41.928;25.556;2023-04-15T03:56:46;13.85;;;4.80;;
11911;SDS011;6016;41.928;25.556;2023-04-15T03:59:13;15.68;;;4.97;;
11911;SDS011;6016;41.928;25.556;2023-04-15T04:01:42;14.20;;;5.15;;
11911;SDS011;6016;41.928;25.556;2023-04-15T04:04:08;10.48;;;4.45;;
11911;SDS011;6016;41.928;25.556;2023-04-15T04:06:35;16.20;;;5.82;;
11911;SDS011;6016;41.928;25.556;2023-04-15T04:09:02;9.23;;;5.28;;
11911;SDS011;6016;41.928;25.556;2023-04-15T04:11:29;12.30;;;5.53;;
11911;SDS011;6016;41.928;25.556;2023-04-15T04:13:57;10.52;;;4.78;;
11911;SDS011;6016;41.928;25.556;2023-04-15T04:16:24;13.68;;;5.47;;
11911;SDS011;6016;41.928;25.556;2023-04-15T04:18:52;7.05;;;4.13;;
11911;SDS011;6016;41.928;25.556;2023-04-15T04:21:19;7.95;;;5.20;;
11911;SDS011;6016;41.928;25.556;2023-04-15T04:23:46;8.23;;;4.50;;
11911;SDS011;6016;41.928;25.556;2023-04-15T04:26:13;8.82;;;4.10;;
11911;SDS011;6016;41.928;25.556;2023-04-15T04:28:40;8.90;;;3.60;;
11911;SDS011;6016;41.928;25.556;2023-04-15T04:31:07;6.78;;;3.75;;
11911;SDS011;6016;41.928;25.556;2023-04-15T04:33:33;7.70;;;3.38;;
11911;SDS011;6016;41.928;25.556;2023-04-15T04:36:02;8.55;;;4.43;;
11911;SDS011;6016;41.928;25.556;2023-04-15T04:38:29;9.45;;;4.50;;
11911;SDS011;6016;41.928;25.556;2023-04-15T04:40:56;9.07;;;4.68;;
11911;SDS011;6016;41.928;25.556;2023-04-15T04:43:23;11.40;;;4.68;;
11911;SDS011;6016;41.928;25.556;2023-04-15T04:45:50;9.07;;;5.05;;
11911;SDS011;6016;41.928;25.556;2023-04-15T04:48:17;7.78;;;3.60;;
11911;SDS011;6016;41.928;25.556;2023-04-15T04:50:44;11.68;;;6.57;;
11911;SDS011;6016;41.928;25.556;2023-04-15T04:53:12;15.85;;;7.18;;
11911;SDS011;6016;41.928;25.556;2023-04-15T04:55:40;19.20;;;9.90;;
11911;SDS011;6016;41.928;25.556;2023-04-15T04:58:07;16.45;;;7.10;;
11911;SDS011;6016;41.928;25.556;2023-04-15T05:00:33;11.15;;;5.22;;
11911;SDS011;6016;41.928;25.556;2023-04-15T05:03:02;9.10;;;4.07;;
11911;SDS011;6016;41.928;25.556;2023-04-15T05:05:29;8.30;;;3.90;;
11911;SDS011;6016;41.928;25.556;2023-04-15T05:07:56;9.38;;;3.83;;
11911;SDS011;6016;41.928;25.556;2023-04-15T05:10:24;7.07;;;3.22;;
11911;SDS011;6016;41.928;25.556;2023-04-15T05:12:51;7.05;;;3.63;;
11911;SDS011;6016;41.928;25.556;2023-04-15T05:15:17;6.13;;;2.95;;
11911;SDS011;6016;41.928;25.556;2023-04-15T05:17:44;8.80;;;3.65;;
11911;SDS011;6016;41.928;25.556;2023-04-15T05:20:11;7.97;;;4.28;;
11911;SDS011;6016;41.928;25.556;2023-04-15T05:22:38;9.88;;;4.35;;
11911;SDS011;6016;41.928;25.556;2023-04-15T05:25:05;8.43;;;4.72;;
11911;SDS011;6016;41.928;25.556;2023-04-15T05:27:34;7.68;;;3.90;;
11911;SDS011;6016;41.928;25.556;2023-04-15T05:30:02;8.73;;;4.13;;
11911;SDS011;6016;41.928;25.556;2023-04-15T05:32:29;12.32;;;5.57;;
11911;SDS011;6016;41.928;25.556;2023-04-15T05:34:56;10.07;;;4.22;;
11911;SDS011;6016;41.928;25.556;2023-04-15T05:37:23;11.13;;;4.85;;
11911;SDS011;6016;41.928;25.556;2023-04-15T05:39:50;10.63;;;5.45;;
11911;SDS011;6016;41.928;25.556;2023-04-15T05:42:17;6.93;;;3.63;;
11911;SDS011;6016;41.928;25.556;2023-04-15T05:44:45;6.22;;;2.92;;
11911;SDS011;6016;41.928;25.556;2023-04-15T05:47:12;7.85;;;3.13;;
11911;SDS011;6016;41.928;25.556;2023-04-15T05:49:39;5.93;;;3.60;;
11911;SDS011;6016;41.928;25.556;2023-04-15T05:52:05;8.63;;;4.78;;
11911;SDS011;6016;41.928;25.556;2023-04-15T05:54:32;5.35;;;3.00;;
11911;SDS011;6016;41.928;25.556;2023-04-15T05:56:59;7.75;;;3.65;;
11911;SDS011;6016;41.928;25.556;2023-04-15T05:59:26;5.57;;;3.10;;
11911;SDS011;6016;41.928;25.556;2023-04-15T06:01:55;4.55;;;2.38;;
11911;SDS011;6016;41.928;25.556;2023-04-15T06:04:22;3.53;;;2.20;;
11911;SDS011;6016;41.928;25.556;2023-04-15T06:06:48;6.85;;;2.53;;
11911;SDS011;6016;41.928;25.556;2023-04-15T06:09:15;4.55;;;2.58;;
11911;SDS011;6016;41.928;25.556;2023-04-15T06:11:42;5.50;;;2.40;;
11911;SDS011;6016;41.928;25.556;2023-04-15T06:14:09;6.57;;;2.75;;
11911;SDS011;6016;41.928;25.556;2023-04-15T06:16:36;7.07;;;2.70;;
11911;SDS011;6016;41.928;25.556;2023-04-15T06:19:04;6.68;;;2.55;;
11911;SDS011;6016;41.928;25.556;2023-04-15T06:21:31;5.50;;;2.83;;
11911;SDS011;6016;41.928;25.556;2023-04-15T06:23:58;6.43;;;2.65;;
11911;SDS011;6016;41.928;25.556;2023-04-15T06:26:26;3.70;;;2.40;;
11911;SDS011;6016;41.928;25.556;2023-04-15T06:28:53;5.97;;;2.00;;
11911;SDS011;6016;41.928;25.556;2023-04-15T06:31:20;4.35;;;2.20;;
11911;SDS011;6016;41.928;25.556;2023-04-15T06:33:47;6.22;;;2.22;;
11911;SDS011;6016;41.928;25.556;2023-04-15T06:36:15;7.47;;;3.13;;
11911;SDS011;6016;41.928;25.556;2023-04-15T06:38:42;10.13;;;6.05;;
11911;SDS011;6016;41.928;25.556;2023-04-15T06:41:09;5.38;;;2.25;;
11911;SDS011;6016;41.928;25.556;2023-04-15T06:43:36;4.95;;;2.50;;
11911;SDS011;6016;41.928;25.556;2023-04-15T06:46:03;7.13;;;2.22;;
11911;SDS011;6016;41.928;25.556;2023-04-15T06:48:30;3.38;;;2.25;;
11911;SDS011;6016;41.928;25.556;2023-04-15T06:50:57;4.97;;;1.80;;
11911;SDS011;6016;41.928;25.556;2023-04-15T06:53:25;5.88;;;1.90;;
11911;SDS011;6016;41.928;25.556;2023-04-15T06:55:52;5.78;;;3.05;;
11911;SDS011;6016;41.928;25.556;2023-04-15T06:58:19;4.95;;;2.42;;
11911;SDS011;6016;41.928;25.556;2023-04-15T07:00:46;4.97;;;2.28;;
11911;SDS011;6016;41.928;25.556;2023-04-15T07:03:13;5.95;;;2.25;;
11911;SDS011;6016;41.928;25.556;2023-04-15T07:05:40;5.70;;;2.28;;
11911;SDS011;6016;41.928;25.556;2023-04-15T07:08:07;2.75;;;1.80;;
11911;SDS011;6016;41.928;25.556;2023-04-15T07:10:35;3.55;;;2.00;;
11911;SDS011;6016;41.928;25.556;2023-04-15T07:13:02;3.78;;;1.92;;
11911;SDS011;6016;41.928;25.556;2023-04-15T07:15:29;6.30;;;2.63;;
11911;SDS011;6016;41.928;25.556;2023-04-15T07:17:56;6.05;;;2.65;;
11911;SDS011;6016;41.928;25.556;2023-04-15T07:20:23;5.05;;;1.85;;
11911;SDS011;6016;41.928;25.556;2023-04-15T07:22:50;3.92;;;1.90;;
11911;SDS011;6016;41.928;25.556;2023-04-15T07:25:17;7.82;;;2.25;;
11911;SDS011;6016;41.928;25.556;2023-04-15T07:27:45;6.43;;;2.28;;
11911;SDS011;6016;41.928;25.556;2023-04-15T07:30:12;4.15;;;2.30;;
11911;SDS011;6016;41.928;25.556;2023-04-15T07:32:39;6.95;;;1.83;;
11911;SDS011;6016;41.928;25.556;2023-04-15T07:35:06;6.38;;;1.98;;
11911;SDS011;6016;41.928;25.556;2023-04-15T07:37:33;3.40;;;1.80;;
11911;SDS011;6016;41.928;25.556;2023-04-15T07:40:00;6.53;;;1.77;;
11911;SDS011;6016;41.928;25.556;2023-04-15T07:42:28;4.88;;;2.30;;
11911;SDS011;6016;41.928;25.556;2023-04-15T07:44:57;14.52;;;8.35;;
11911;SDS011;6016;41.928;25.556;2023-04-15T07:47:23;2.25;;;1.40;;
11911;SDS011;6016;41.928;25.556;2023-04-15T07:49:51;3.83;;;1.50;;
11911;SDS011;6016;41.928;25.556;2023-04-15T07:52:18;1.90;;;1.33;;
11911;SDS011;6016;41.928;25.556;2023-04-15T07:54:45;5.13;;;1.98;;
11911;SDS011;6016;41.928;25.556;2023-04-15T07:57:11;3.83;;;1.95;;
11911;SDS011;6016;41.928;25.556;2023-04-15T07:59:38;4.28;;;1.50;;
11911;SDS011;6016;41.928;25.556;2023-04-15T08:02:07;4.70;;;1.60;;
11911;SDS011;6016;41.928;25.556;2023-04-15T08:04:34;4.25;;;1.77;;
11911;SDS011;6016;41.928;25.556;2023-04-15T08:07:00;3.28;;;1.70;;
11911;SDS011;6016;41.928;25.556;2023-04-15T08:09:27;3.85;;;1.60;;
11911;SDS011;6016;41.928;25.556;2023-04-15T08:11:54;4.03;;;1.58;;
11911;SDS011;6016;41.928;25.556;2023-04-15T08:14:21;2.53;;;1.60;;
11911;SDS011;6016;41.928;25.556;2023-04-15T08:16:49;2.15;;;1.50;;
11911;SDS011;6016;41.928;25.556;2023-04-15T08:19:17;5.18;;;1.92;;
11911;SDS011;6016;41.928;25.556;2023-04-15T08:21:44;1.75;;;1.40;;
11911;SDS011;6016;41.928;25.556;2023-04-15T08:24:11;3.97;;;1.65;;
11911;SDS011;6016;41.928;25.556;2023-04-15T08:26:38;6.88;;;1.48;;
11911;SDS011;6016;41.928;25.556;2023-04-15T08:29:06;2.78;;;1.30;;
11911;SDS011;6016;41.928;25.556;2023-04-15T08:31:33;5.38;;;1.70;;
11911;SDS011;6016;41.928;25.556;2023-04-15T08:34:00;3.22;;;1.60;;
11911;SDS011;6016;41.928;25.556;2023-04-15T08:36:29;3.42;;;1.65;;
11911;SDS011;6016;41.928;25.556;2023-04-15T08:38:56;4.45;;;1.70;;
11911;SDS011;6016;41.928;25.556;2023-04-15T08:41:25;4.03;;;1.48;;
11911;SDS011;6016;41.928;25.556;2023-04-15T08:43:52;4.18;;;1.50;;
11911;SDS011;6016;41.928;25.556;2023-04-15T08:46:22;4.72;;;1.95;;
11911;SDS011;6016;41.928;25.556;2023-04-15T08:48:49;4.93;;;1.70;;
11911;SDS011;6016;41.928;25.556;2023-04-15T08:51:16;3.13;;;1.67;;
11911;SDS011;6016;41.928;25.556;2023-04-15T08:53:45;4.68;;;1.70;;
11911;SDS011;6016;41.928;25.556;2023-04-15T08:56:13;3.40;;;2.05;;
11911;SDS011;6016;41.928;25.556;2023-04-15T08:58:40;3.63;;;2.10;;
11911;SDS011;6016;41.928;25.556;2023-04-15T09:01:08;5.30;;;1.67;;
11911;SDS011;6016;41.928;25.556;2023-04-15T09:03:37;3.78;;;1.50;;
11911;SDS011;6016;41.928;25.556;2023-04-15T09:06:04;7.30;;;1.73;;
11911;SDS011;6016;41.928;25.556;2023-04-15T09:08:31;4.85;;;1.55;;
11911;SDS011;6016;41.928;25.556;2023-04-15T09:11:01;3.95;;;1.48;;
11911;SDS011;6016;41.928;25.556;2023-04-15T09:13:28;3.53;;;1.30;;
11911;SDS011;6016;41.928;25.556;2023-04-15T09:15:55;5.65;;;1.90;;
11911;SDS011;6016;41.928;25.556;2023-04-15T09:18:28;6.20;;;1.92;;
11911;SDS011;6016;41.928;25.556;2023-04-15T09:21:02;4.22;;;1.48;;
11911;SDS011;6016;41.928;25.556;2023-04-15T09:23:31;3.63;;;1.60;;
11911;SDS011;6016;41.928;25.556;2023-04-15T09:25:57;6.43;;;1.70;;
11911;SDS011;6016;41.928;25.556;2023-04-15T09:28:26;4.60;;;1.85;;
11911;SDS011;6016;41.928;25.556;2023-04-15T09:30:56;3.38;;;1.63;;
11911;SDS011;6016;41.928;25.556;2023-04-15T09:33:23;4.75;;;1.48;;
11911;SDS011;6016;41.928;25.556;2023-04-15T09:35:55;4.10;;;1.60;;
11911;SDS011;6016;41.928;25.556;2023-04-15T09:38:24;4.15;;;1.65;;
11911;SDS011;6016;41.928;25.556;2023-04-15T09:40:50;3.58;;;1.50;;
11911;SDS011;6016;41.928;25.556;2023-04-15T09:43:17;3.38;;;1.50;;
11911;SDS011;6016;41.928;25.556;2023-04-15T09:45:49;2.95;;;1.58;;
11911;SDS011;6016;41.928;25.556;2023-04-15T09:48:18;4.32;;;1.85;;
11911;SDS011;6016;41.928;25.556;2023-04-15T09:50:46;2.08;;;1.30;;
11911;SDS011;6016;41.928;25.556;2023-04-15T09:53:15;3.20;;;1.63;;
11911;SDS011;6016;41.928;25.556;2023-04-15T09:55:44;4.13;;;1.88;;
11911;SDS011;6016;41.928;25.556;2023-04-15T09:58:18;3.03;;;1.40;;
11911;SDS011;6016;41.928;25.556;2023-04-15T10:00:46;2.67;;;1.50;;
11911;SDS011;6016;41.928;25.556;2023-04-15T10:03:17;6.95;;;2.30;;
11911;SDS011;6016;41.928;25.556;2023-04-15T10:05:55;3.40;;;1.70;;
11911;SDS011;6016;41.928;25.556;2023-04-15T10:08:25;2.25;;;1.35;;
11911;SDS011;6016;41.928;25.556;2023-04-15T10:10:53;3.13;;;1.38;;
11911;SDS011;6016;41.928;25.556;2023-04-15T10:13:20;6.30;;;1.70;;
11911;SDS011;6016;41.928;25.556;2023-04-15T10:15:50;4.63;;;1.63;;
11911;SDS011;6016;41.928;25.556;2023-04-15T10:18:22;3.72;;;1.52;;
11911;SDS011;6016;41.928;25.556;2023-04-15T10:20:51;4.78;;;1.65;;
11911;SDS011;6016;41.928;25.556;2023-04-15T10:23:18;3.15;;;1.40;;
11911;SDS011;6016;41.928;25.556;2023-04-15T10:25:46;5.57;;;2.10;;
11911;SDS011;6016;41.928;25.556;2023-04-15T10:28:14;4.60;;;1.48;;
11911;SDS011;6016;41.928;25.556;2023-04-15T10:30:42;7.40;;;1.63;;
11911;SDS011;6016;41.928;25.556;2023-04-15T10:33:09;4.93;;;1.80;;
11911;SDS011;6016;41.928;25.556;2023-04-15T10:35:38;2.95;;;1.50;;
11911;SDS011;6016;41.928;25.556;2023-04-15T10:41:15;6.28;;;2.15;;
11911;SDS011;6016;41.928;25.556;2023-04-15T10:43:47;4.03;;;1.63;;
11911;SDS011;6016;41.928;25.556;2023-04-15T10:46:20;8.38;;;2.22;;
11911;SDS011;6016;41.928;25.556;2023-04-15T10:48:48;3.55;;;1.45;;
11911;SDS011;6016;41.928;25.556;2023-04-15T10:51:26;4.32;;;1.60;;
11911;SDS011;6016;41.928;25.556;2023-04-15T10:53:55;6.30;;;1.98;;
11911;SDS011;6016;41.928;25.556;2023-04-15T10:56:23;3.25;;;1.60;;
11911;SDS011;6016;41.928;25.556;2023-04-15T10:58:50;4.50;;;1.80;;
11911;SDS011;6016;41.928;25.556;2023-04-15T11:01:18;4.82;;;2.00;;
11911;SDS011;6016;41.928;25.556;2023-04-15T11:03:47;3.10;;;1.77;;
11911;SDS011;6016;41.928;25.556;2023-04-15T11:06:15;5.28;;;2.20;;
11911;SDS011;6016;41.928;25.556;2023-04-15T11:08:56;6.95;;;1.80;;
11911;SDS011;6016;41.928;25.556;2023-04-15T11:14:32;5.95;;;1.40;;
11911;SDS011;6016;41.928;25.556;2023-04-15T11:17:00;4.63;;;1.65;;
11911;SDS011;6016;41.928;25.556;2023-04-15T11:19:34;6.32;;;1.58;;
11911;SDS011;6016;41.928;25.556;2023-04-15T11:22:05;5.22;;;1.85;;
11911;SDS011;6016;41.928;25.556;2023-04-15T11:24:34;5.47;;;2.33;;
11911;SDS011;6016;41.928;25.556;2023-04-15T11:27:01;5.22;;;1.95;;
11911;SDS011;6016;41.928;25.556;2023-04-15T11:29:28;5.38;;;1.92;;
11911;SDS011;6016;41.928;25.556;2023-04-15T11:32:07;8.35;;;3.20;;
11911;SDS011;6016;41.928;25.556;2023-04-15T11:34:34;4.85;;;1.67;;
11911;SDS011;6016;41.928;25.556;2023-04-15T11:37:02;8.15;;;2.60;;
11911;SDS011;6016;41.928;25.556;2023-04-15T11:39:30;5.43;;;1.67;;
11911;SDS011;6016;41.928;25.556;2023-04-15T11:41:57;5.00;;;2.05;;
11911;SDS011;6016;41.928;25.556;2023-04-15T11:44:24;5.10;;;1.67;;
11911;SDS011;6016;41.928;25.556;2023-04-15T11:46:51;6.30;;;1.77;;
11911;SDS011;6016;41.928;25.556;2023-04-15T11:49:28;4.40;;;1.90;;
11911;SDS011;6016;41.928;25.556;2023-04-15T11:51:58;6.40;;;2.33;;
11911;SDS011;6016;41.928;25.556;2023-04-15T11:54:25;5.38;;;1.98;;
11911;SDS011;6016;41.928;25.556;2023-04-15T11:56:52;6.20;;;1.80;;
11911;SDS011;6016;41.928;25.556;2023-04-15T11:59:19;3.78;;;1.48;;
11911;SDS011;6016;41.928;25.556;2023-04-15T12:01:45;3.72;;;1.00;;
11911;SDS011;6016;41.928;25.556;2023-04-15T12:04:13;4.70;;;1.25;;
11911;SDS011;6016;41.928;25.556;2023-04-15T12:06:43;3.70;;;1.30;;
11911;SDS011;6016;41.928;25.556;2023-04-15T12:09:10;1.50;;;1.02;;
11911;SDS011;6016;41.928;25.556;2023-04-15T12:11:39;3.15;;;1.10;;
11911;SDS011;6016;41.928;25.556;2023-04-15T12:14:11;2.50;;;1.02;;
11911;SDS011;6016;41.928;25.556;2023-04-15T12:16:41;2.93;;;1.10;;
11911;SDS011;6016;41.928;25.556;2023-04-15T12:19:11;3.10;;;1.20;;
11911;SDS011;6016;41.928;25.556;2023-04-15T12:21:39;4.25;;;1.40;;
11911;SDS011;6016;41.928;25.556;2023-04-15T12:24:08;3.25;;;1.05;;
11911;SDS011;6016;41.928;25.556;2023-04-15T12:26:37;3.65;;;1.73;;
11911;SDS011;6016;41.928;25.556;2023-04-15T12:29:10;2.40;;;1.00;;
11911;SDS011;6016;41.928;25.556;2023-04-15T12:31:45;4.00;;;1.20;;
11911;SDS011;6016;41.928;25.556;2023-04-15T12:34:13;4.93;;;1.20;;
11911;SDS011;6016;41.928;25.556;2023-04-15T12:36:40;1.80;;;1.00;;
11911;SDS011;6016;41.928;25.556;2023-04-15T12:39:08;4.45;;;1.10;;
11911;SDS011;6016;41.928;25.556;2023-04-15T12:41:35;4.20;;;1.33;;
11911;SDS011;6016;41.928;25.556;2023-04-15T12:44:02;3.60;;;1.27;;
11911;SDS011;6016;41.928;25.556;2023-04-15T12:46:29;4.25;;;1.17;;
11911;SDS011;6016;41.928;25.556;2023-04-15T12:48:56;3.92;;;1.45;;
11911;SDS011;6016;41.928;25.556;2023-04-15T12:51:23;5.35;;;1.08;;
11911;SDS011;6016;41.928;25.556;2023-04-15T12:53:51;2.80;;;1.38;;
11911;SDS011;6016;41.928;25.556;2023-04-15T12:56:19;3.47;;;1.50;;
11911;SDS011;6016;41.928;25.556;2023-04-15T12:58:46;4.35;;;1.50;;
11911;SDS011;6016;41.928;25.556;2023-04-15T13:01:13;2.63;;;1.10;;
11911;SDS011;6016;41.928;25.556;2023-04-15T13:03:40;2.97;;;1.02;;
11911;SDS011;6016;41.928;25.556;2023-04-15T13:06:07;2.40;;;1.10;;
11911;SDS011;6016;41.928;25.556;2023-04-15T13:08:34;6.40;;;1.42;;
11911;SDS011;6016;41.928;25.556;2023-04-15T13:11:01;5.15;;;1.52;;
11911;SDS011;6016;41.928;25.556;2023-04-15T13:13:29;5.88;;;1.60;;
11911;SDS011;6016;41.928;25.556;2023-04-15T13:15:56;4.97;;;1.48;;
11911;SDS011;6016;41.928;25.556;2023-04-15T13:18:23;5.72;;;1.95;;
11911;SDS011;6016;41.928;25.556;2023-04-15T13:20:50;3.20;;;1.30;;
11911;SDS011;6016;41.928;25.556;2023-04-15T13:23:17;3.45;;;1.83;;
11911;SDS011;6016;41.928;25.556;2023-04-15T13:25:43;3.70;;;1.30;;
11911;SDS011;6016;41.928;25.556;2023-04-15T13:28:10;3.90;;;1.40;;
11911;SDS011;6016;41.928;25.556;2023-04-15T13:30:38;4.35;;;1.48;;
11911;SDS011;6016;41.928;25.556;2023-04-15T13:33:05;6.13;;;1.80;;
11911;SDS011;6016;41.928;25.556;2023-04-15T13:35:32;7.38;;;1.65;;
11911;SDS011;6016;41.928;25.556;2023-04-15T13:37:59;4.15;;;1.50;;
11911;SDS011;6016;41.928;25.556;2023-04-15T13:40:25;4.88;;;1.95;;
11911;SDS011;6016;41.928;25.556;2023-04-15T13:42:52;5.90;;;1.50;;
11911;SDS011;6016;41.928;25.556;2023-04-15T13:45:20;2.55;;;1.30;;
11911;SDS011;6016;41.928;25.556;2023-04-15T13:47:48;3.20;;;1.25;;
11911;SDS011;6016;41.928;25.556;2023-04-15T13:50:15;6.35;;;1.27;;
11911;SDS011;6016;41.928;25.556;2023-04-15T13:52:42;4.32;;;1.40;;
11911;SDS011;6016;41.928;25.556;2023-04-15T13:55:09;2.25;;;1.00;;
11911;SDS011;6016;41.928;25.556;2023-04-15T13:57:36;7.35;;;1.42;;
11911;SDS011;6016;41.928;25.556;2023-04-15T14:00:03;3.95;;;1.40;;
11911;SDS011;6016;41.928;25.556;2023-04-15T14:02:31;1.77;;;0.90;;
11911;SDS011;6016;41.928;25.556;2023-04-15T14:04:59;3.60;;;1.10;;
11911;SDS011;6016;41.928;25.556;2023-04-15T14:07:26;3.03;;;1.23;;
11911;SDS011;6016;41.928;25.556;2023-04-15T14:09:54;2.70;;;1.20;;
11911;SDS011;6016;41.928;25.556;2023-04-15T14:12:21;4.03;;;1.25;;
11911;SDS011;6016;41.928;25.556;2023-04-15T14:14:48;3.53;;;1.20;;
11911;SDS011;6016;41.928;25.556;2023-04-15T14:17:15;4.00;;;1.23;;
11911;SDS011;6016;41.928;25.556;2023-04-15T14:19:41;3.22;;;1.00;;
11911;SDS011;6016;41.928;25.556;2023-04-15T14:22:10;1.92;;;1.15;;
11911;SDS011;6016;41.928;25.556;2023-04-15T14:24:36;3.92;;;1.30;;
11911;SDS011;6016;41.928;25.556;2023-04-15T14:27:03;2.25;;;1.08;;
11911;SDS011;6016;41.928;25.556;2023-04-15T14:29:30;3.65;;;1.10;;
11911;SDS011;6016;41.928;25.556;2023-04-15T14:31:57;4.22;;;1.38;;
11911;SDS011;6016;41.928;25.556;2023-04-15T14:34:24;4.47;;;1.10;;
11911;SDS011;6016;41.928;25.556;2023-04-15T14:36:50;4.47;;;1.05;;
11911;SDS011;6016;41.928;25.556;2023-04-15T14:39:19;6.10;;;1.20;;
11911;SDS011;6016;41.928;25.556;2023-04-15T14:41:45;2.97;;;1.10;;
11911;SDS011;6016;41.928;25.556;2023-04-15T14:44:12;2.72;;;1.30;;
11911;SDS011;6016;41.928;25.556;2023-04-15T14:46:40;3.50;;;1.17;;
11911;SDS011;6016;41.928;25.556;2023-04-15T14:49:07;2.38;;;1.10;;
11911;SDS011;6016;41.928;25.556;2023-04-15T14:51:34;2.78;;;1.42;;
11911;SDS011;6016;41.928;25.556;2023-04-15T14:54:00;3.65;;;1.35;;